Time;durP1;ratioP1;P1;durP2;ratioP2;P2;SDS_P1;SDS_P2;PMS_P1;PMS_P2;Temp;Humidity;BMP_temperature;BMP_pressure;BME280_temperature;BME280_humidity;BME280_pressure;Samples;Min_cycle;Max_cycle;Signal;HPM_P1;HPM_P2
2021/12/17 00:07:14;;;;;;;34.72;14.40;;;;;;;;;;4998959;28;20081;-81
2021/12/17 00:09:43;;;;;;;28.88;13.45;;;;;;;;;;4997742;28;20025;-81
2021/12/17 00:12:11;;;;;;;29.48;13.95;;;;;;;;;;4996472;28;20109;-81
2021/12/17 00:14:40;;;;;;;25.85;12.90;;;;;;;;;;4996218;28;20479;-81
2021/12/17 00:17:10;;;;;;;33.70;13.27;;;;;;;;;;4996828;28;20046;-81
2021/12/17 00:49:03;;;;;;;22.40;10.82;;;;;;;;;;4975643;28;20023;-80
2021/12/17 00:54:18;;;;;;;22.63;10.05;;;;;;;;;;4995469;28;20023;-81
2021/12/17 00:56:45;;;;;;;23.25;10.25;;;;;;;;;;4995056;28;20026;-81
2021/12/17 00:59:11;;;;;;;25.70;10.00;;;;;;;;;;4978621;28;20022;-81
2021/12/17 01:01:37;;;;;;;18.27;10.27;;;;;;;;;;4994416;28;20053;-82
2021/12/17 01:04:03;;;;;;;19.73;8.88;;;;;;;;;;4994835;28;20046;-81
2021/12/17 01:06:29;;;;;;;19.00;9.98;;;;;;;;;;4994691;28;20030;-81
2021/12/17 01:08:55;;;;;;;17.15;9.27;;;;;;;;;;4995320;28;20029;-81
2021/12/17 01:11:22;;;;;;;16.88;8.38;;;;;;;;;;4994781;28;20138;-82
2021/12/17 01:13:48;;;;;;;15.27;8.23;;;;;;;;;;4977493;28;20018;-82
2021/12/17 01:16:14;;;;;;;13.80;7.40;;;;;;;;;;4994777;28;20030;-81
2021/12/17 01:19:11;;;;;;;16.75;8.27;;;;;;;;;;4994200;28;20109;-81
2021/12/17 01:22:24;;;;;;;16.67;8.35;;;;;;;;;;4993708;28;20467;-81
2021/12/17 01:35:29;;;;;;;13.70;7.50;;;;;;;;;;4994586;28;20164;-81
2021/12/17 01:43:29;;;;;;;11.40;6.75;;;;;;;;;;4993855;28;20069;-80
2021/12/17 01:45:55;;;;;;;12.50;6.95;;;;;;;;;;4993354;28;20049;-79
2021/12/17 01:48:28;;;;;;;11.93;6.00;;;;;;;;;;4975771;28;20076;-80
2021/12/17 01:56:39;;;;;;;8.73;5.25;;;;;;;;;;4994514;28;20073;-81
2021/12/17 01:59:30;;;;;;;7.35;5.05;;;;;;;;;;4976856;28;20521;-81
2021/12/17 02:02:01;;;;;;;8.88;4.82;;;;;;;;;;4996457;28;20034;-79
2021/12/17 02:04:27;;;;;;;7.67;4.87;;;;;;;;;;5025781;28;20030;-80
2021/12/17 02:06:53;;;;;;;7.68;4.60;;;;;;;;;;5000322;28;20022;-80
2021/12/17 02:21:14;;;;;;;4.95;3.05;;;;;;;;;;4998131;28;20040;-80
2021/12/17 02:32:07;;;;;;;6.32;3.30;;;;;;;;;;4997907;28;20037;-80
2021/12/17 02:37:22;;;;;;;5.28;3.38;;;;;;;;;;4997182;28;20410;-80
2021/12/17 02:45:36;;;;;;;5.97;2.90;;;;;;;;;;4956937;29;20058;-81
2021/12/17 02:48:05;;;;;;;3.63;2.75;;;;;;;;;;4962992;28;20069;-81
2021/12/17 02:50:31;;;;;;;5.47;3.03;;;;;;;;;;4979973;28;20150;-80
2021/12/17 02:53:01;;;;;;;5.18;3.17;;;;;;;;;;4997062;28;20042;-80
2021/12/17 02:55:28;;;;;;;5.88;3.00;;;;;;;;;;4997676;28;20093;-81
2021/12/17 02:57:55;;;;;;;4.32;2.70;;;;;;;;;;4996623;28;20037;-81
2021/12/17 03:00:21;;;;;;;4.90;2.53;;;;;;;;;;4997171;28;20077;-81
2021/12/17 03:02:48;;;;;;;3.70;2.92;;;;;;;;;;4997419;28;20034;-81
2021/12/17 03:05:14;;;;;;;6.93;2.97;;;;;;;;;;4997015;28;20101;-80
2021/12/17 03:07:43;;;;;;;5.03;2.90;;;;;;;;;;4996930;28;20084;-81
2021/12/17 03:10:11;;;;;;;3.17;2.40;;;;;;;;;;4997020;28;20018;-80
2021/12/17 03:12:48;;;;;;;3.13;2.20;;;;;;;;;;4996883;28;20050;-80
2021/12/17 03:15:24;;;;;;;3.78;2.67;;;;;;;;;;4979888;28;20073;-81
2021/12/17 03:25:53;;;;;;;2.55;2.03;;;;;;;;;;4981900;28;20042;-81
2021/12/17 03:28:19;;;;;;;7.57;2.47;;;;;;;;;;4997300;28;20480;-80
2021/12/17 03:30:46;;;;;;;4.60;2.95;;;;;;;;;;4998065;28;20022;-80
2021/12/17 03:33:12;;;;;;;3.92;2.50;;;;;;;;;;4997171;28;20027;-81
2021/12/17 03:35:38;;;;;;;3.90;2.75;;;;;;;;;;4996917;28;20027;-81
2021/12/17 03:38:05;;;;;;;3.13;2.28;;;;;;;;;;4996770;28;20105;-81
2021/12/17 03:40:32;;;;;;;4.85;2.70;;;;;;;;;;4979688;28;20023;-81
2021/12/17 03:43:02;;;;;;;4.35;2.97;;;;;;;;;;4996844;28;20022;-81
2021/12/17 03:45:29;;;;;;;4.03;2.88;;;;;;;;;;4997001;28;20022;-81
2021/12/17 03:47:55;;;;;;;3.22;2.53;;;;;;;;;;4995317;28;20110;-81
2021/12/17 03:50:21;;;;;;;5.15;3.38;;;;;;;;;;4978306;28;20057;-81
2021/12/17 03:52:47;;;;;;;4.93;2.80;;;;;;;;;;4996739;28;20038;-81
2021/12/17 03:55:13;;;;;;;3.90;3.05;;;;;;;;;;4996290;28;20031;-81
2021/12/17 03:57:39;;;;;;;6.40;3.40;;;;;;;;;;4996411;28;20380;-81
2021/12/17 04:00:06;;;;;;;5.57;4.07;;;;;;;;;;4995710;28;20022;-80
2021/12/17 04:02:32;;;;;;;5.75;3.53;;;;;;;;;;4978418;28;20061;-80
2021/12/17 04:04:58;;;;;;;5.00;3.28;;;;;;;;;;4979052;28;20025;-81
2021/12/17 04:07:24;;;;;;;6.15;3.55;;;;;;;;;;4995915;28;20030;-81
2021/12/17 04:09:50;;;;;;;5.88;3.92;;;;;;;;;;4996079;28;20023;-81
2021/12/17 04:12:19;;;;;;;5.07;4.05;;;;;;;;;;4995569;28;20025;-81
2021/12/17 04:14:46;;;;;;;6.75;3.85;;;;;;;;;;4998255;28;20545;-81
2021/12/17 04:17:14;;;;;;;6.22;3.83;;;;;;;;;;4997680;28;20415;-82
2021/12/17 04:19:40;;;;;;;8.35;4.65;;;;;;;;;;4996014;28;20480;-81
2021/12/17 04:22:07;;;;;;;5.57;4.07;;;;;;;;;;4995987;28;20034;-82
2021/12/17 04:24:33;;;;;;;6.22;4.03;;;;;;;;;;4995863;28;20026;-81
2021/12/17 04:26:59;;;;;;;7.78;4.53;;;;;;;;;;4995970;28;20030;-81
2021/12/17 04:29:26;;;;;;;5.60;4.18;;;;;;;;;;4995778;28;20404;-81
2021/12/17 04:31:54;;;;;;;7.32;4.15;;;;;;;;;;4996319;28;20027;-81
2021/12/17 04:34:22;;;;;;;6.50;4.07;;;;;;;;;;4995829;28;20023;-80
2021/12/17 04:36:50;;;;;;;5.40;4.22;;;;;;;;;;4994808;28;20058;-81
2021/12/17 04:39:18;;;;;;;5.45;4.30;;;;;;;;;;4995724;28;20058;-81
2021/12/17 04:44:26;;;;;;;6.70;3.83;;;;;;;;;;4995540;28;20108;-82
2021/12/17 04:57:36;;;;;;;5.97;4.25;;;;;;;;;;5011370;28;20077;-81
2021/12/17 05:00:07;;;;;;;6.22;4.32;;;;;;;;;;5000333;28;20105;-81
2021/12/17 05:02:40;;;;;;;6.05;4.38;;;;;;;;;;4995186;28;20026;-81
2021/12/17 05:05:08;;;;;;;7.38;3.78;;;;;;;;;;4995477;28;20034;-80
2021/12/17 05:07:36;;;;;;;4.50;3.50;;;;;;;;;;4995562;28;20046;-80
2021/12/17 05:18:23;;;;;;;5.35;3.95;;;;;;;;;;4995342;28;20092;-81
2021/12/17 05:20:54;;;;;;;7.75;4.55;;;;;;;;;;4994710;28;20411;-81
2021/12/17 05:23:23;;;;;;;;;;;;;;;;;;4977659;28;20113;-81
2021/12/17 05:25:50;;;;;;;5.15;3.85;;;;;;;;;;4994605;28;19905;-81
2021/12/17 05:28:16;;;;;;;7.15;4.15;;;;;;;;;;4994749;28;20467;-81
2021/12/17 05:30:46;;;;;;;6.20;4.45;;;;;;;;;;4990877;28;20069;-81
2021/12/17 05:33:13;;;;;;;5.70;3.83;;;;;;;;;;4975190;28;20015;-82
2021/12/17 05:35:39;;;;;;;6.07;4.05;;;;;;;;;;4975438;28;20022;-81
2021/12/17 05:38:05;;;;;;;4.72;3.88;;;;;;;;;;4973714;28;20554;-81
2021/12/17 05:40:31;;;;;;;5.63;3.90;;;;;;;;;;4983252;28;20038;-80
2021/12/17 05:43:00;;;;;;;4.53;3.63;;;;;;;;;;4977084;28;20026;-79
2021/12/17 05:45:48;;;;;;;7.40;4.35;;;;;;;;;;4994955;28;20487;-81
2021/12/17 05:48:15;;;;;;;4.35;3.70;;;;;;;;;;4992785;28;20031;-81
2021/12/17 05:50:42;;;;;;;3.88;3.50;;;;;;;;;;4994764;28;20030;-80
2021/12/17 05:53:08;;;;;;;7.13;4.15;;;;;;;;;;4994358;28;20418;-80
2021/12/17 05:55:34;;;;;;;4.18;3.30;;;;;;;;;;4994947;28;20470;-80
2021/12/17 05:58:00;;;;;;;6.35;4.13;;;;;;;;;;4976260;28;20118;-81
2021/12/17 06:00:30;;;;;;;5.25;3.88;;;;;;;;;;4993600;28;20057;-80
2021/12/17 06:02:57;;;;;;;3.88;3.38;;;;;;;;;;5009187;28;20030;-80
2021/12/17 06:05:23;;;;;;;5.90;3.78;;;;;;;;;;4998204;28;20026;-80
2021/12/17 06:07:50;;;;;;;4.25;3.50;;;;;;;;;;4975776;28;20542;-80
2021/12/17 06:10:16;;;;;;;6.50;3.80;;;;;;;;;;4992933;28;20022;-81
2021/12/17 06:12:42;;;;;;;5.63;3.58;;;;;;;;;;4994893;28;20492;-80
2021/12/17 06:15:10;;;;;;;5.20;3.58;;;;;;;;;;4993167;28;20476;-80
2021/12/17 06:17:36;;;;;;;4.63;3.63;;;;;;;;;;4993594;28;20531;-81
2021/12/17 06:20:02;;;;;;;4.20;3.80;;;;;;;;;;4993789;28;20069;-80
2021/12/17 06:22:28;;;;;;;8.75;3.85;;;;;;;;;;4993641;28;20099;-81
2021/12/17 06:24:54;;;;;;;4.00;3.50;;;;;;;;;;4992979;28;20058;-81
2021/12/17 06:27:21;;;;;;;4.18;3.13;;;;;;;;;;4992859;28;20241;-81
2021/12/17 06:29:47;;;;;;;5.75;3.22;;;;;;;;;;4975018;28;20532;-82
2021/12/17 06:32:13;;;;;;;5.78;3.15;;;;;;;;;;4992237;28;20110;-81
2021/12/17 06:34:40;;;;;;;5.22;3.30;;;;;;;;;;4993078;28;20022;-81
2021/12/17 06:37:06;;;;;;;4.45;3.15;;;;;;;;;;4994913;28;20035;-81
2021/12/17 06:39:33;;;;;;;3.92;2.85;;;;;;;;;;4996218;28;20487;-81
2021/12/17 06:41:59;;;;;;;3.60;2.78;;;;;;;;;;4995557;28;20026;-80
2021/12/17 06:44:26;;;;;;;4.20;3.33;;;;;;;;;;4995327;28;20033;-82
2021/12/17 06:47:02;;;;;;;5.85;2.78;;;;;;;;;;4994654;28;20030;-81
2021/12/17 07:10:52;;;;;;;5.25;3.40;;;;;;;;;;4998675;28;20045;-80
2021/12/17 07:21:54;;;;;;;3.72;2.67;;;;;;;;;;4998399;28;20412;-80
2021/12/17 07:39:51;;;;;;;3.72;2.88;;;;;;;;;;4996424;28;20039;-80
2021/12/17 07:42:49;;;;;;;4.15;3.10;;;;;;;;;;4997941;28;20037;-83
2021/12/17 07:45:18;;;;;;;3.45;2.67;;;;;;;;;;4999044;28;20072;-83
2021/12/17 07:47:44;;;;;;;3.53;2.58;;;;;;;;;;4998725;28;20027;-83
2021/12/17 07:50:10;;;;;;;5.05;3.20;;;;;;;;;;4981451;28;20049;-83
2021/12/17 07:52:36;;;;;;;3.97;2.85;;;;;;;;;;4997264;28;20041;-83
2021/12/17 07:55:02;;;;;;;6.22;3.15;;;;;;;;;;4999481;28;20472;-82
2021/12/17 07:57:28;;;;;;;5.18;3.17;;;;;;;;;;4998378;28;20034;-82
2021/12/17 07:59:54;;;;;;;2.67;2.40;;;;;;;;;;4998646;28;20030;-81
2021/12/17 08:02:21;;;;;;;6.15;2.90;;;;;;;;;;4996858;28;20125;-82
2021/12/17 08:05:12;;;;;;;4.22;3.38;;;;;;;;;;4979277;28;20038;-82
2021/12/17 08:07:38;;;;;;;2.95;2.42;;;;;;;;;;4986813;28;20062;-81
2021/12/17 08:10:07;;;;;;;3.45;2.78;;;;;;;;;;4995948;28;20412;-83
2021/12/17 08:12:33;;;;;;;4.72;3.10;;;;;;;;;;4996993;28;20022;-84
2021/12/17 08:14:59;;;;;;;4.13;2.53;;;;;;;;;;4999549;28;20027;-82
2021/12/17 08:26:19;;;;;;;4.15;2.70;;;;;;;;;;4955342;28;20035;-81
2021/12/17 08:28:55;;;;;;;;;;;;;;;;;;;;;
2021/12/17 08:31:17;;;;;;;3.80;3.08;;;;;;;;;;4988702;28;20018;-82
2021/12/17 08:33:43;;;;;;;2.92;2.63;;;;;;;;;;4997166;28;20026;-81
2021/12/17 08:36:12;;;;;;;4.72;2.60;;;;;;;;;;4997206;28;20033;-81
2021/12/17 08:38:38;;;;;;;3.92;3.10;;;;;;;;;;4996777;28;20061;-81
2021/12/17 08:41:04;;;;;;;3.75;2.60;;;;;;;;;;4996082;28;20022;-82
2021/12/17 08:43:31;;;;;;;2.95;2.40;;;;;;;;;;4997002;28;20104;-81
2021/12/17 08:45:57;;;;;;;3.50;2.45;;;;;;;;;;4996860;28;20461;-80
2021/12/17 08:48:23;;;;;;;2.13;1.77;;;;;;;;;;4997083;28;20105;-81
2021/12/17 08:50:49;;;;;;;2.33;2.05;;;;;;;;;;4997478;28;20018;-83
2021/12/17 08:53:18;;;;;;;2.10;1.70;;;;;;;;;;4997929;28;20030;-82
2021/12/17 08:55:45;;;;;;;3.83;1.90;;;;;;;;;;4978812;28;20511;-82
2021/12/17 08:58:13;;;;;;;2.67;1.58;;;;;;;;;;4994120;28;20026;-82
2021/12/17 09:00:40;;;;;;;2.33;1.80;;;;;;;;;;4994298;28;20041;-82
2021/12/17 09:03:09;;;;;;;2.22;1.95;;;;;;;;;;4995714;28;20026;-82
2021/12/17 09:05:37;;;;;;;1.55;1.45;;;;;;;;;;4994919;28;20683;-80
2021/12/17 09:08:03;;;;;;;2.20;1.90;;;;;;;;;;4994177;28;20117;-81
2021/12/17 09:10:30;;;;;;;2.10;1.90;;;;;;;;;;4992709;28;20026;-82
2021/12/17 09:12:56;;;;;;;2.58;1.40;;;;;;;;;;4994700;28;20019;-82
2021/12/17 09:15:22;;;;;;;2.40;2.10;;;;;;;;;;4978058;28;20395;-83
2021/12/17 09:17:48;;;;;;;3.00;1.80;;;;;;;;;;4995000;28;20380;-82
2021/12/17 09:20:14;;;;;;;4.57;2.15;;;;;;;;;;4994397;28;20041;-80
2021/12/17 09:22:40;;;;;;;2.00;1.80;;;;;;;;;;4995598;28;20038;-84
2021/12/17 09:25:07;;;;;;;2.35;2.03;;;;;;;;;;4999134;28;20061;-82
2021/12/17 09:27:34;;;;;;;2.05;1.85;;;;;;;;;;4979975;28;20121;-82
2021/12/17 09:30:00;;;;;;;2.20;1.75;;;;;;;;;;4996173;28;20022;-82
2021/12/17 09:32:26;;;;;;;7.35;1.77;;;;;;;;;;4995167;28;20061;-82
2021/12/17 09:34:52;;;;;;;2.67;1.80;;;;;;;;;;4996644;28;20027;-82
2021/12/17 09:37:18;;;;;;;2.58;1.60;;;;;;;;;;4995727;28;20033;-79
2021/12/17 09:39:44;;;;;;;2.45;1.80;;;;;;;;;;4997008;28;20056;-79
2021/12/17 09:42:22;;;;;;;1.77;1.60;;;;;;;;;;4994564;28;20368;-84
2021/12/17 09:44:48;;;;;;;2.47;1.90;;;;;;;;;;4982715;28;20027;-85
2021/12/17 09:47:14;;;;;;;3.13;1.90;;;;;;;;;;5009639;28;20072;-85
2021/12/17 09:49:40;;;;;;;2.70;1.88;;;;;;;;;;5010544;28;20037;-85
2021/12/17 09:52:07;;;;;;;2.88;2.13;;;;;;;;;;5000892;28;20045;-84
2021/12/17 09:54:53;;;;;;;3.35;1.88;;;;;;;;;;4994394;28;20026;-85
2021/12/17 09:57:20;;;;;;;3.22;1.88;;;;;;;;;;4982477;28;20038;-84
2021/12/17 09:59:47;;;;;;;2.00;1.80;;;;;;;;;;4994731;28;20026;-85
2021/12/17 10:02:13;;;;;;;3.22;2.05;;;;;;;;;;4993809;28;20117;-85
2021/12/17 10:04:44;;;;;;;2.83;2.17;;;;;;;;;;4976291;28;20112;-85
2021/12/17 10:07:23;;;;;;;2.58;1.63;;;;;;;;;;4997610;28;20023;-84
2021/12/17 10:09:52;;;;;;;2.45;1.92;;;;;;;;;;4995175;28;20030;-82
2021/12/17 10:12:22;;;;;;;2.30;1.73;;;;;;;;;;4994511;28;20030;-82
2021/12/17 10:15:17;;;;;;;2.63;2.00;;;;;;;;;;4995058;28;20474;-82
2021/12/17 10:17:53;;;;;;;2.40;1.90;;;;;;;;;;4985471;28;20082;-81
2021/12/17 10:20:20;;;;;;;2.05;1.55;;;;;;;;;;4976418;28;20117;-81
2021/12/17 10:22:47;;;;;;;3.13;1.92;;;;;;;;;;4996097;28;20030;-82
2021/12/17 10:25:13;;;;;;;3.20;1.85;;;;;;;;;;4995314;28;20054;-82
2021/12/17 10:27:41;;;;;;;2.80;1.85;;;;;;;;;;4994458;28;20703;-81
2021/12/17 10:30:12;;;;;;;1.92;1.63;;;;;;;;;;4995261;28;20014;-83
2021/12/17 10:32:41;;;;;;;2.45;1.83;;;;;;;;;;4979128;28;20033;-80
2021/12/17 10:35:16;;;;;;;2.90;2.00;;;;;;;;;;4980301;28;20551;-81
2021/12/17 10:37:44;;;;;;;2.75;1.80;;;;;;;;;;4998294;28;20030;-83
2021/12/17 10:40:17;;;;;;;3.20;1.92;;;;;;;;;;4998131;28;20050;-84
2021/12/17 10:42:52;;;;;;;3.92;2.10;;;;;;;;;;4997891;28;20018;-81
2021/12/17 10:45:26;;;;;;;2.58;1.98;;;;;;;;;;4996363;28;20101;-83
2021/12/17 10:48:37;;;;;;;3.58;1.80;;;;;;;;;;4980469;28;20390;-82
2021/12/17 10:51:30;;;;;;;2.53;1.90;;;;;;;;;;4978605;28;20019;-83
2021/12/17 10:53:57;;;;;;;5.05;2.38;;;;;;;;;;4991478;28;20030;-81
2021/12/17 10:56:33;;;;;;;3.58;2.53;;;;;;;;;;4998841;28;20035;-81
2021/12/17 10:59:08;;;;;;;4.22;2.13;;;;;;;;;;4981239;28;20026;-81
2021/12/17 11:01:36;;;;;;;3.45;2.25;;;;;;;;;;4996183;28;20034;-81
2021/12/17 11:04:19;;;;;;;2.33;2.13;;;;;;;;;;4998385;28;20569;-82
2021/12/17 11:06:52;;;;;;;2.97;2.22;;;;;;;;;;4997722;28;20038;-82
2021/12/17 11:09:38;;;;;;;5.53;2.30;;;;;;;;;;4997700;28;20030;-81
2021/12/17 11:12:25;;;;;;;2.60;2.17;;;;;;;;;;4979877;28;20103;-83
2021/12/17 11:14:51;;;;;;;3.47;2.20;;;;;;;;;;4979498;28;20504;-83
2021/12/17 11:17:22;;;;;;;2.40;2.00;;;;;;;;;;4980217;28;20088;-83
2021/12/17 11:19:53;;;;;;;3.10;2.25;;;;;;;;;;4961861;28;20051;-83
2021/12/17 11:22:19;;;;;;;2.20;1.80;;;;;;;;;;4998616;28;20081;-84
2021/12/17 11:24:47;;;;;;;2.10;1.70;;;;;;;;;;4998125;28;20065;-83
2021/12/17 11:27:13;;;;;;;3.13;2.10;;;;;;;;;;4979586;28;20085;-82
2021/12/17 11:29:41;;;;;;;2.67;2.10;;;;;;;;;;4997987;28;20442;-82
2021/12/17 11:32:07;;;;;;;2.22;1.90;;;;;;;;;;4997033;28;20034;-82
2021/12/17 11:34:34;;;;;;;3.35;2.53;;;;;;;;;;4979582;28;20058;-82
2021/12/17 11:37:02;;;;;;;2.95;1.90;;;;;;;;;;4979044;28;20109;-82
2021/12/17 11:39:31;;;;;;;2.65;1.83;;;;;;;;;;4998803;28;20030;-83
2021/12/17 11:42:06;;;;;;;1.88;1.67;;;;;;;;;;4997681;28;20054;-81
2021/12/17 11:44:42;;;;;;;1.88;1.70;;;;;;;;;;4978855;28;20027;-82
2021/12/17 11:47:14;;;;;;;2.17;1.95;;;;;;;;;;4975732;28;20035;-82
2021/12/17 11:49:47;;;;;;;2.30;1.98;;;;;;;;;;4985643;28;20014;-82
2021/12/17 11:52:14;;;;;;;4.57;2.88;;;;;;;;;;4996542;28;20117;-82
2021/12/17 11:54:40;;;;;;;3.28;2.40;;;;;;;;;;4997883;28;20034;-82
2021/12/17 11:57:06;;;;;;;3.70;2.67;;;;;;;;;;4997072;28;20030;-81
2021/12/17 11:59:34;;;;;;;2.95;2.47;;;;;;;;;;4979692;28;20030;-81
2021/12/17 12:02:01;;;;;;;5.35;2.38;;;;;;;;;;4997454;28;20073;-81
2021/12/17 12:04:33;;;;;;;3.45;2.58;;;;;;;;;;4999972;28;20037;-81
2021/12/17 12:07:09;;;;;;;3.22;2.40;;;;;;;;;;4997540;28;20030;-80
2021/12/17 12:09:59;;;;;;;4.38;2.33;;;;;;;;;;4993933;28;20534;-81
2021/12/17 12:12:29;;;;;;;7.53;2.72;;;;;;;;;;4972940;28;20045;-81
2021/12/17 12:14:56;;;;;;;4.05;2.80;;;;;;;;;;4993643;28;20045;-81
2021/12/17 12:17:40;;;;;;;5.38;2.85;;;;;;;;;;4976137;28;20087;-82
2021/12/17 12:20:07;;;;;;;2.25;1.83;;;;;;;;;;4976751;28;20039;-81
2021/12/17 12:22:33;;;;;;;3.90;2.72;;;;;;;;;;4975693;28;20033;-81
2021/12/17 12:25:17;;;;;;;5.70;2.33;;;;;;;;;;4976802;28;20039;-81
2021/12/17 12:27:46;;;;;;;3.63;2.55;;;;;;;;;;4988435;28;20031;-84
2021/12/17 12:30:13;;;;;;;3.88;3.17;;;;;;;;;;5004949;28;20043;-82
2021/12/17 12:32:59;;;;;;;4.20;3.00;;;;;;;;;;4989368;28;20030;-81
2021/12/17 12:35:25;;;;;;;3.88;2.58;;;;;;;;;;4998146;28;20150;-82
2021/12/17 12:38:27;;;;;;;5.25;3.35;;;;;;;;;;4997385;28;20026;-82
2021/12/17 12:40:56;;;;;;;4.97;3.13;;;;;;;;;;4951021;28;20057;-81
2021/12/17 12:43:26;;;;;;;4.07;2.80;;;;;;;;;;4994011;28;20041;-82
2021/12/17 12:45:52;;;;;;;5.72;3.53;;;;;;;;;;5007832;28;20030;-82
2021/12/17 12:48:32;;;;;;;7.10;3.70;;;;;;;;;;4997202;28;20049;-82
2021/12/17 12:51:18;;;;;;;6.60;3.60;;;;;;;;;;4996563;28;20488;-80
2021/12/17 12:54:01;;;;;;;5.20;3.47;;;;;;;;;;4996101;28;20030;-83
2021/12/17 12:56:27;;;;;;;4.47;3.30;;;;;;;;;;4995750;28;20018;-82
2021/12/17 12:58:53;;;;;;;5.45;3.78;;;;;;;;;;4996053;28;20026;-83
2021/12/17 13:01:20;;;;;;;5.47;3.55;;;;;;;;;;4997793;28;20043;-81
2021/12/17 13:03:46;;;;;;;5.10;3.47;;;;;;;;;;5000016;28;20023;-84
2021/12/17 13:06:20;;;;;;;4.55;3.05;;;;;;;;;;4980640;28;20023;-82
2021/12/17 13:08:56;;;;;;;5.90;3.03;;;;;;;;;;4977749;28;20033;-81
2021/12/17 13:11:22;;;;;;;4.70;3.22;;;;;;;;;;4995906;28;20052;-81
2021/12/17 13:13:54;;;;;;;5.97;3.30;;;;;;;;;;4998359;28;20140;-82
2021/12/17 13:16:42;;;;;;;4.97;3.30;;;;;;;;;;4996249;28;20106;-79
2021/12/17 13:22:14;;;;;;;5.13;3.58;;;;;;;;;;4982489;28;20561;-81
2021/12/17 13:24:40;;;;;;;5.35;3.55;;;;;;;;;;4994274;28;20507;-83
2021/12/17 13:27:09;;;;;;;5.10;3.47;;;;;;;;;;5001157;28;20022;-81
2021/12/17 13:29:37;;;;;;;5.15;3.10;;;;;;;;;;4999008;28;20028;-82
2021/12/17 13:32:04;;;;;;;4.25;3.33;;;;;;;;;;4995713;28;20472;-82
2021/12/17 13:34:30;;;;;;;4.78;2.83;;;;;;;;;;4978509;28;20032;-82
2021/12/17 13:37:00;;;;;;;5.03;2.92;;;;;;;;;;5004361;28;20026;-81
2021/12/17 13:39:36;;;;;;;3.17;2.40;;;;;;;;;;4986850;28;20029;-80
2021/12/17 13:42:02;;;;;;;4.47;2.60;;;;;;;;;;5014725;28;20057;-81
2021/12/17 13:44:41;;;;;;;3.20;2.60;;;;;;;;;;5015193;28;20118;-80
2021/12/17 13:47:27;;;;;;;3.25;2.13;;;;;;;;;;4991372;28;20030;-81
2021/12/17 13:49:57;;;;;;;3.03;2.10;;;;;;;;;;4987665;28;20050;-82
2021/12/17 13:52:24;;;;;;;5.38;3.00;;;;;;;;;;4981576;28;20041;-82
2021/12/17 13:54:51;;;;;;;4.20;2.38;;;;;;;;;;5015229;28;20022;-82
2021/12/17 13:57:18;;;;;;;4.32;2.40;;;;;;;;;;4995828;28;20037;-82
2021/12/17 13:59:45;;;;;;;3.85;2.63;;;;;;;;;;4994176;28;20169;-82
2021/12/17 14:02:17;;;;;;;4.55;2.40;;;;;;;;;;4995435;28;20023;-82
2021/12/17 14:04:59;;;;;;;3.35;2.10;;;;;;;;;;4995051;28;20105;-81
2021/12/17 14:07:32;;;;;;;3.17;2.33;;;;;;;;;;4976962;28;20034;-82
2021/12/17 14:09:59;;;;;;;3.38;2.13;;;;;;;;;;4969585;28;20031;-81
2021/12/17 14:12:30;;;;;;;3.78;2.30;;;;;;;;;;4968985;28;20034;-82
2021/12/17 14:14:57;;;;;;;5.20;2.83;;;;;;;;;;4979995;28;20031;-82
2021/12/17 14:17:23;;;;;;;3.03;2.17;;;;;;;;;;4986275;28;20034;-82
2021/12/17 14:19:50;;;;;;;2.47;2.15;;;;;;;;;;4998138;28;20034;-82
2021/12/17 14:22:29;;;;;;;3.67;2.47;;;;;;;;;;4998839;28;20022;-82
2021/12/17 14:24:56;;;;;;;3.05;2.42;;;;;;;;;;4986581;28;20021;-81
2021/12/17 14:27:22;;;;;;;3.13;2.22;;;;;;;;;;5018076;28;20030;-82
2021/12/17 14:30:01;;;;;;;3.88;2.83;;;;;;;;;;5018441;28;20109;-81
2021/12/17 14:32:27;;;;;;;4.10;2.95;;;;;;;;;;5005902;28;20087;-82
2021/12/17 14:34:53;;;;;;;4.47;2.92;;;;;;;;;;5004875;28;20054;-82
2021/12/17 14:37:19;;;;;;;3.75;2.78;;;;;;;;;;5001317;28;20070;-81
2021/12/17 14:39:47;;;;;;;4.47;3.13;;;;;;;;;;4996104;28;20472;-81
2021/12/17 14:42:28;;;;;;;3.78;2.53;;;;;;;;;;4978937;28;20031;-81
2021/12/17 14:44:58;;;;;;;3.22;2.50;;;;;;;;;;5002112;28;20126;-82
2021/12/17 14:47:31;;;;;;;3.92;2.63;;;;;;;;;;4998264;28;20058;-81
2021/12/17 15:01:15;;;;;;;;;;;;;;;;;;;;;
2021/12/17 15:03:41;;;;;;;5.55;2.97;;;;;;;;;;4998368;28;20034;-82
2021/12/17 15:06:09;;;;;;;4.03;2.70;;;;;;;;;;4992846;28;20030;-82
2021/12/17 15:08:35;;;;;;;4.15;3.10;;;;;;;;;;4998015;28;20098;-82
2021/12/17 15:11:04;;;;;;;4.75;2.72;;;;;;;;;;4978771;28;20054;-81
2021/12/17 15:13:30;;;;;;;3.33;2.65;;;;;;;;;;4997736;28;20018;-81
2021/12/17 15:15:57;;;;;;;4.78;2.40;;;;;;;;;;4978677;28;20478;-80
2021/12/17 15:18:23;;;;;;;6.22;3.03;;;;;;;;;;4996657;28;20023;-81
2021/12/17 15:20:51;;;;;;;4.78;3.20;;;;;;;;;;4996516;28;20069;-80
2021/12/17 15:23:17;;;;;;;6.30;2.95;;;;;;;;;;4996559;28;20365;-79
2021/12/17 15:25:44;;;;;;;4.95;2.97;;;;;;;;;;4996735;28;20034;-79
2021/12/17 15:28:12;;;;;;;4.90;3.35;;;;;;;;;;4997384;28;20506;-81
2021/12/17 15:30:39;;;;;;;7.03;3.42;;;;;;;;;;4997445;28;20084;-81
2021/12/17 15:33:06;;;;;;;6.07;3.47;;;;;;;;;;4996141;28;20057;-80
2021/12/17 15:35:32;;;;;;;8.50;4.68;;;;;;;;;;4996964;28;20081;-81
2021/12/17 15:37:59;;;;;;;7.72;4.60;;;;;;;;;;4998740;28;20033;-80
2021/12/17 15:40:25;;;;;;;7.22;4.95;;;;;;;;;;4999140;28;20038;-80
2021/12/17 15:42:52;;;;;;;8.02;4.90;;;;;;;;;;4979451;28;20023;-80
2021/12/17 15:45:19;;;;;;;7.97;4.90;;;;;;;;;;5016029;28;20096;-80
2021/12/17 15:47:45;;;;;;;7.40;4.88;;;;;;;;;;5006046;28;20073;-80
2021/12/17 15:50:14;;;;;;;9.63;5.75;;;;;;;;;;4996135;28;20109;-81
2021/12/17 15:52:46;;;;;;;8.27;4.95;;;;;;;;;;4998609;28;20523;-81
2021/12/17 15:55:15;;;;;;;8.43;5.43;;;;;;;;;;4998803;28;20026;-81
2021/12/17 15:57:41;;;;;;;9.70;5.60;;;;;;;;;;4998059;28;20484;-80
2021/12/17 16:00:08;;;;;;;12.27;6.22;;;;;;;;;;4997887;28;20026;-81
2021/12/17 16:02:35;;;;;;;12.02;6.40;;;;;;;;;;4998841;28;20022;-80
2021/12/17 16:05:06;;;;;;;10.10;6.22;;;;;;;;;;4997905;28;20033;-81
2021/12/17 16:07:32;;;;;;;10.77;6.40;;;;;;;;;;4998079;28;20022;-81
2021/12/17 16:23:20;;;;;;;12.13;6.95;;;;;;;;;;5002285;28;20088;-82
2021/12/17 16:25:46;;;;;;;10.45;6.70;;;;;;;;;;5004766;28;20031;-82
2021/12/17 16:28:12;;;;;;;14.38;7.45;;;;;;;;;;5006722;28;20046;-85
2021/12/17 16:30:38;;;;;;;12.63;7.38;;;;;;;;;;5000468;28;20042;-85
2021/12/17 16:33:04;;;;;;;15.15;7.78;;;;;;;;;;5006721;28;20023;-85
2021/12/17 16:35:30;;;;;;;12.80;7.75;;;;;;;;;;5000819;28;20024;-83
2021/12/17 16:37:56;;;;;;;13.32;6.85;;;;;;;;;;5002897;28;20475;-86
2021/12/17 16:40:22;;;;;;;13.77;7.05;;;;;;;;;;5003760;28;20092;-86
2021/12/17 16:42:48;;;;;;;12.25;8.40;;;;;;;;;;5002687;28;20053;-84
2021/12/17 16:45:30;;;;;;;13.95;8.68;;;;;;;;;;5017410;28;20041;-83
2021/12/17 16:47:58;;;;;;;15.75;8.60;;;;;;;;;;5001191;28;20038;-85
2021/12/17 16:50:26;;;;;;;16.83;9.35;;;;;;;;;;4999620;28;20019;-84
2021/12/17 16:52:53;;;;;;;16.70;8.68;;;;;;;;;;4991771;28;20419;-84
2021/12/17 16:55:20;;;;;;;14.25;8.20;;;;;;;;;;4981161;28;20492;-84
2021/12/17 16:57:46;;;;;;;14.38;8.15;;;;;;;;;;5005267;28;20019;-84
2021/12/17 17:00:13;;;;;;;15.05;8.50;;;;;;;;;;4998153;28;20030;-84
2021/12/17 17:02:42;;;;;;;13.80;8.50;;;;;;;;;;4979282;28;20033;-84
2021/12/17 17:05:08;;;;;;;16.33;8.68;;;;;;;;;;4979344;28;20081;-85
2021/12/17 17:07:34;;;;;;;15.07;8.73;;;;;;;;;;5004233;28;20057;-84
2021/12/17 17:10:00;;;;;;;17.73;8.43;;;;;;;;;;5005936;28;20018;-83
2021/12/17 17:12:29;;;;;;;15.88;9.15;;;;;;;;;;5005962;28;20104;-83
2021/12/17 17:14:55;;;;;;;12.95;8.45;;;;;;;;;;5006806;28;20050;-83
2021/12/17 17:18:12;;;;;;;;;;;;;;;;;;;;;
2021/12/17 17:20:38;;;;;;;13.38;7.93;;;;;;;;;;5000048;28;20072;-83
2021/12/17 17:23:04;;;;;;;15.27;8.13;;;;;;;;;;4995884;28;20029;-83
2021/12/17 17:25:30;;;;;;;16.05;8.70;;;;;;;;;;4996232;28;20112;-83
2021/12/17 17:27:57;;;;;;;14.90;8.48;;;;;;;;;;4995225;28;20034;-84
2021/12/17 17:30:23;;;;;;;13.15;8.35;;;;;;;;;;4996316;28;20030;-82
2021/12/17 17:32:51;;;;;;;13.30;7.47;;;;;;;;;;4996934;28;20050;-84
2021/12/17 17:35:19;;;;;;;13.00;7.88;;;;;;;;;;4996982;28;20022;-84
2021/12/17 17:37:53;;;;;;;14.35;7.63;;;;;;;;;;5000760;28;20033;-87
2021/12/17 17:40:21;;;;;;;17.42;7.80;;;;;;;;;;4999091;28;20047;-85
2021/12/17 17:42:49;;;;;;;12.75;8.15;;;;;;;;;;4994691;28;20084;-82
2021/12/17 17:45:15;;;;;;;13.57;8.30;;;;;;;;;;5002261;28;20034;-83
2021/12/17 17:47:50;;;;;;;13.20;7.63;;;;;;;;;;4995816;28;20399;-84
2021/12/17 17:50:17;;;;;;;12.23;6.75;;;;;;;;;;4995485;28;20026;-82
2021/12/17 17:52:43;;;;;;;17.77;8.80;;;;;;;;;;4994735;28;20041;-81
2021/12/17 17:55:09;;;;;;;11.25;6.88;;;;;;;;;;4995516;28;20046;-83
2021/12/17 17:57:35;;;;;;;11.38;6.97;;;;;;;;;;4978245;28;20030;-83
2021/12/17 18:00:02;;;;;;;12.32;7.00;;;;;;;;;;4995552;28;20030;-83
2021/12/17 18:02:28;;;;;;;14.93;7.60;;;;;;;;;;4995738;28;20030;-83
2021/12/17 18:04:54;;;;;;;12.27;7.57;;;;;;;;;;4996311;28;20081;-82
2021/12/17 18:07:20;;;;;;;11.18;6.93;;;;;;;;;;4995837;28;20037;-83
2021/12/17 18:09:46;;;;;;;10.25;5.65;;;;;;;;;;4995567;28;20443;-83
2021/12/17 18:12:12;;;;;;;9.27;5.32;;;;;;;;;;4981384;28;20030;-82
2021/12/17 18:14:39;;;;;;;9.77;5.93;;;;;;;;;;4980123;28;20583;-82
2021/12/17 18:17:07;;;;;;;11.55;6.57;;;;;;;;;;4998190;28;20037;-82